Lake Zurich, Illinois
Current Conditions -  °F | °C
As of 10:52 AM on Friday 21 Nov 2014 (Local Time) from KPWK Reporting Station
Clear Clear  
Wind Chill: 15°   Ceiling: Unl
Heat Index: 25°   Visibility: 10mi
Dew Point:   Wind: 10mph
Humidity: 37%   Direction: 160°SSE
Pressure: 30.46"   Gusts: NA
Location:  42.2°N, 88.09°W
Report Text: KPWK 211652Z 16009KT 10SM CLR M04/M17 A3046 RMK AO2 SLP324 T10391167
Loading
Personal Weather Stations






























Interactive Weather Map New forecast layout! Learn more

10-Day Weather Forecast

Advertisements
Track Severe Weather on mobile